Hauptseite
METAR-TAF:

METAR-TAF

Flughäfen :

RNAS Yeovilton

Yeovilton, England

Breite: 51-00N, Länge: 002-38W, Höhe: 23 m

Beobachtung

Neuester Wetterbericht von vor 50 Minuten, um 19:50 UTC
Wind 4 kt aus Nord/Nordwest
Temperatur 18°C
Luftfeuchtigkeit 83%
Luftdruck 1019 hPa
Sichtweite 10 km oder mehr

METAR: EGDY 251950Z AUTO 33004KT 9999 NCD 18/15 Q1019

Zeit: 21:40 (20:40 UTC)


TAF: fehlend

Wetterbeobachtungen und Prognosen von mehr als 4000 Flughäfen (METAR und TAF Bericht).

Die verfügbaren Stationen werden durch gelbe und rote Markierungen auf der Karte dargestellt.

Führen Sie die Maus auf sie, um den Namen der Station zu sehen.

Darauf klicken, um die Beobachtung von Wetterbeobachtungen und Prognosen zu sehen.

Um die Karte zu ändern : klicken Sie auf den grünen Tasten mit einem schwarzen Kreuz Zum Vergrößern, auf den grünen Button mit einem Gedankenstrich zu verkleinern, oder auf die grünen Pfeile für benachbarte Karten.


METAR-TAF: